Terminal Aerodrome Forecast
Issued by NWS Detroit/Pontiac, MI

Current Version | Previous Version | Text Only | Print | Product List | Glossary On
Versions: 1 2 3 4 5 6 7 8 9 10 11 12 13 14 15 16 17 18
218
FTUS43 KDTX 132020 AAA
TAFFNT
TAF AMD
KFNT 132020Z 1320/1418 30009KT P6SM BKN050
     FM140000 VRB04KT P6SM SKC
     FM141600 14007KT P6SM BKN250=

USA.gov is the U.S. government's official web portal to all federal, state and local government web resources and services.